Latest Weather Observations for Rockhampton

IDQ60801

Issued at 1:05 pm EST Thursday 24 April 2014 (issued every 30 minutes, with the page automatically refreshed every 10 minutes)

About weather observations | Map of weather stations | Latest weather observations for QLD | Other Formats
Station Details ID: 039083 Name: ROCKHAMPTON AERO Lat: -23.38 Lon: 150.48 Height: 10.4 m
Data from the previous 72 hours. | See also: Recent months at Rockhampton
Date/Time
EST
Temp
°C
App
Temp
°C
Dew
Point
Rel
Hum
%
Delta-T
°C
Wind Press
QNH
hPa
Press
MSL
hPa
Rain
since 9 am
mm
Dir
 
Spd
km/h
Gust
km/h
Spd
kts
Gust
kts
24/01:00pm 26.7 28.0 19.3 64 4.8 E 11 17 6 9 1013.1 - 0.0
24/12:30pm 26.9 27.9 19.5 64 4.8 ESE 13 20 7 11 1014.0 - 0.0
24/12:00pm 25.8 26.5 18.9 65 4.4 ESE 13 20 7 11 1014.6 1014.5 0.0
24/11:30am 25.3 26.6 19.2 69 3.9 SE 11 17 6 9 1015.1 - 0.0
24/11:00am 25.4 26.4 19.5 70 3.8 SSE 13 20 7 11 1015.6 - 0.0
24/10:30am 24.3 26.1 19.6 75 3.0 SE 9 13 5 7 1016.1 - 0.0
24/10:00am 23.4 24.3 19.2 77 2.7 E 13 19 7 10 1016.4 - 0.0
24/09:30am 22.9 24.6 19.3 80 2.3 SSE 9 13 5 7 1016.4 - 0.0
24/09:00am 22.2 23.8 19.2 83 1.9 ESE 9 17 5 9 1015.9 1015.8 0.0
24/08:30am 21.6 23.2 19.1 86 1.6 SE 9 13 5 7 1016.0 - 0.0
24/08:00am 21.5 23.5 19.1 86 1.5 SE 7 11 4 6 1015.6 - 0.0
24/07:30am 20.9 22.5 19.2 90 1.1 E 9 13 5 7 1015.6 - 0.0
24/07:10am 21.0 21.5 19.3 90 1.1 SW 15 20 8 11 1016.5 - 0.0
24/07:00am 21.2 22.1 19.3 89 1.2 SW 13 17 7 9 1015.9 - 0.0
24/06:30am 21.0 22.4 19.6 92 0.9 ENE 11 17 6 9 1013.9 - 0.0
24/06:00am 21.1 22.1 18.7 86 1.5 E 11 17 6 9 1014.5 1014.4 0.0
24/05:30am 21.2 22.7 19.0 87 1.4 SE 9 15 5 8 1014.3 - 0.0
24/05:00am 21.2 22.5 19.3 89 1.2 SSE 11 13 6 7 1014.6 - 0.0
24/04:30am 21.2 23.4 19.5 90 1.1 ESE 7 11 4 6 1014.3 - 0.0
24/04:00am 21.2 23.4 19.6 90 1.0 ESE 7 9 4 5 1014.4 - 0.0
24/03:30am 21.4 23.6 19.7 90 1.1 S 7 11 4 6 1014.5 - 0.0
24/03:00am 21.4 23.2 19.5 89 1.2 SE 9 11 5 6 1014.7 1014.6 0.0
24/02:30am 21.3 23.0 19.4 89 1.2 ESE 9 13 5 7 1014.4 - 0.0
24/02:00am 21.2 23.0 19.5 90 1.1 ESE 9 13 5 7 1014.6 - 0.0
24/01:30am 21.3 23.4 19.4 89 1.2 ESE 7 11 4 6 1015.1 - 0.0
24/01:00am 21.4 23.6 19.2 87 1.4 ESE 6 9 3 5 1015.2 - 0.0
24/12:30am 21.5 23.7 19.5 88 1.3 SE 7 11 4 6 1015.6 - 0.0
24/12:00am 21.7 23.5 19.5 87 1.4 SE 9 11 5 6 1016.2 1016.1 0.0
 
Date/Time
EST
Temp
°C
App
Temp
°C
Dew
Point
Rel
Hum
%
Delta-T
°C
Wind Press
QNH
hPa
Press
MSL
hPa
Rain
since 9 am
mm
Dir
 
Spd
km/h
Gust
km/h
Spd
kts
Gust
kts
23/11:30pm 21.6 24.0 19.6 88 1.3 E 6 9 3 5 1016.6 - 0.0
23/11:00pm 21.7 24.3 19.3 86 1.5 SSE 4 7 2 4 1017.0 - 0.0
23/10:30pm 21.8 23.9 19.3 86 1.6 SSE 7 11 4 6 1016.8 - 0.0
23/10:00pm 21.9 24.1 19.5 86 1.5 SE 7 11 4 6 1017.1 - 0.0
23/09:30pm 21.8 24.3 19.8 88 1.3 SE 6 11 3 6 1017.3 - 0.0
23/09:00pm 22.0 23.8 19.6 86 1.5 ESE 9 13 5 7 1017.0 1016.9 0.0
23/08:30pm 22.0 24.3 19.8 87 1.4 ESE 7 11 4 6 1016.9 - 0.0
23/08:00pm 22.2 23.6 19.5 85 1.7 ESE 11 15 6 8 1016.7 - 0.0
23/07:30pm 22.0 23.9 19.8 87 1.4 SE 9 15 5 8 1016.3 - 0.0
23/07:00pm 22.1 23.7 19.9 87 1.4 ESE 11 15 6 8 1015.9 - 0.0
23/06:30pm 22.4 24.5 20.1 87 1.5 SE 9 13 5 7 1015.5 - 0.0
23/06:00pm 22.9 24.1 19.9 83 1.9 E 13 19 7 10 1015.1 1015.0 0.0
23/05:30pm 23.2 24.8 19.9 82 2.1 E 11 19 6 10 1015.1 - 0.0
23/05:00pm 23.8 24.9 20.4 81 2.2 E 15 20 8 11 1014.4 - 0.0
23/04:30pm 24.3 25.6 20.1 77 2.7 E 13 17 7 9 1014.6 - 0.0
23/04:00pm 25.0 26.3 20.2 74 3.1 E 13 17 7 9 1014.3 - 0.0
23/03:30pm 25.6 28.0 19.7 70 3.8 ENE 6 9 3 5 1014.4 - 0.0
23/03:00pm 25.7 27.8 19.3 67 4.1 E 7 13 4 7 1014.6 1014.5 0.0
23/02:30pm 25.8 27.8 19.1 66 4.3 E 7 13 4 7 1014.2 - 0.0
23/02:00pm 26.1 27.8 19.3 66 4.4 ENE 9 11 5 6 1014.2 - 0.0
23/01:30pm 26.5 28.6 20.1 68 4.2 NE 9 13 5 7 1014.7 - 0.0
23/01:00pm 26.2 27.7 19.7 67 4.2 E 11 17 6 9 1015.0 - 0.0
23/12:30pm 25.8 27.5 19.4 67 4.1 E 9 19 5 10 1015.9 - 0.0
23/12:00pm 25.9 26.6 19.7 68 4.0 E 15 20 8 11 1016.1 1016.0 0.0
23/11:30am 26.0 27.1 19.7 68 4.1 E 13 22 7 12 1016.4 - 0.0
23/11:00am 25.1 26.4 19.2 70 3.8 E 11 15 6 8 1016.8 - 0.0
23/10:30am 24.8 25.5 18.8 69 3.8 ESE 13 20 7 11 1017.1 - 0.0
23/10:00am 24.0 24.7 18.8 72 3.3 ESE 13 19 7 10 1017.3 - 0.0
23/09:30am 23.5 24.0 18.4 73 3.2 ESE 13 22 7 12 1017.6 - 0.0
23/09:00am 22.9 22.9 18.1 74 3.0 ESE 15 20 8 11 1017.6 1017.5 0.0
23/08:30am 22.3 22.7 18.1 77 2.6 ESE 13 19 7 10 1017.5 - 0.0
23/08:00am 21.8 22.6 18.1 79 2.3 ESE 11 17 6 9 1017.4 - 0.0
23/07:30am 21.1 22.3 18.2 83 1.8 ESE 9 15 5 8 1017.2 - 0.0
23/07:00am 20.8 21.6 18.2 85 1.6 ESE 11 15 6 8 1017.1 - 0.0
23/06:30am 20.7 21.9 18.3 86 1.5 ESE 9 15 5 8 1017.0 - 0.0
23/06:00am 20.6 21.8 18.3 87 1.4 E 9 13 5 7 1016.6 1016.5 0.0
23/05:30am 20.7 22.0 18.5 87 1.4 SE 9 13 5 7 1016.6 - 0.0
23/05:00am 20.7 21.6 18.5 87 1.4 ESE 11 15 6 8 1016.2 - 0.0
23/04:30am 20.5 21.8 18.4 88 1.3 SE 9 11 5 6 1016.4 - 0.0
23/04:00am 20.3 21.9 18.2 88 1.3 ESE 7 9 4 5 1016.7 - 0.0
23/03:30am 20.6 22.2 18.2 86 1.5 SE 7 9 4 5 1016.5 - 0.0
23/03:00am 20.7 21.1 18.1 85 1.6 SE 13 19 7 10 1016.1 1016.0 0.0
23/02:30am 20.6 21.6 17.8 84 1.7 E 9 11 5 6 1016.4 - 0.0
23/02:00am 20.8 21.8 17.7 82 1.9 ESE 9 15 5 8 1016.9 - 0.0
23/01:30am 20.7 21.7 17.8 83 1.8 E 9 13 5 7 1016.9 - 0.0
23/01:00am 20.8 21.0 17.7 82 1.9 ESE 13 15 7 8 1017.0 - 0.0
23/12:30am 20.7 23.5 17.9 84 1.7 CALM 0 0 0 0 1017.8 - 0.0
23/12:00am 20.4 23.3 18.3 88 1.3 CALM 0 6 0 3 1017.9 1017.8 0.0
 
Date/Time
EST
Temp
°C
App
Temp
°C
Dew
Point
Rel
Hum
%
Delta-T
°C
Wind Press
QNH
hPa
Press
MSL
hPa
Rain
since 9 am
mm
Dir
 
Spd
km/h
Gust
km/h
Spd
kts
Gust
kts
22/11:30pm 20.3 22.8 18.2 88 1.3 SSW 2 6 1 3 1018.2 - 0.0
22/11:00pm 21.1 22.6 18.0 82 1.9 S 7 11 4 6 1018.1 - 0.0
22/10:30pm 20.8 22.4 18.2 85 1.6 SE 7 11 4 6 1017.7 - 0.0
22/10:00pm 20.8 23.6 17.9 83 1.8 CALM 0 0 0 0 1018.2 - 0.0
22/09:30pm 20.5 21.9 17.7 84 1.7 WSW 7 7 4 4 1018.8 - 0.0
22/09:00pm 21.3 23.4 18.2 82 1.9 SSE 4 7 2 4 1018.6 1018.5 0.0
22/08:30pm 21.5 23.2 18.5 83 1.9 S 7 9 4 5 1018.6 - 0.0
22/08:00pm 22.2 23.8 18.2 78 2.5 S 7 11 4 6 1018.2 - 0.0
22/07:30pm 23.0 25.4 17.0 69 3.7 CALM 0 6 0 3 1018.1 - 0.0
22/07:00pm 23.0 24.2 17.3 70 3.5 NE 7 13 4 7 1017.7 - 0.0
22/06:30pm 23.4 24.1 17.1 67 3.9 ENE 9 17 5 9 1017.4 - 0.0
22/06:00pm 24.0 23.8 16.7 63 4.5 ENE 13 20 7 11 1017.2 1017.1 0.0
22/05:30pm 24.3 24.4 16.4 61 4.8 E 11 17 6 9 1017.3 - 0.0
22/05:00pm 24.8 24.2 15.7 57 5.5 ENE 13 22 7 12 1016.9 - 0.0
22/04:30pm 25.7 24.2 15.3 52 6.3 E 17 30 9 16 1016.7 - 0.0
22/04:00pm 26.3 24.3 13.8 46 7.4 E 17 24 9 13 1016.4 - 0.0
22/03:30pm 26.5 24.9 14.0 46 7.4 E 15 22 8 12 1016.5 - 0.0
22/03:00pm 26.8 24.8 14.0 45 7.6 E 17 28 9 15 1016.6 1016.5 0.0
22/02:30pm 26.5 25.0 15.3 50 6.8 E 17 28 9 15 1016.7 - 0.0
22/02:00pm 27.1 25.1 15.4 48 7.1 E 20 32 11 17 1016.9 - 0.0
22/01:30pm 27.5 26.2 15.9 49 7.1 E 17 22 9 12 1017.0 - 0.0
22/01:00pm 26.8 25.4 15.6 50 6.8 ENE 17 26 9 14 1017.4 - 0.0
22/12:30pm 27.0 26.2 17.2 55 6.1 E 17 24 9 13 1017.5 - 0.0
22/12:00pm 25.6 24.5 17.4 60 5.1 E 19 26 10 14 1018.2 1018.1 0.0
22/11:30am 25.8 25.8 18.0 62 4.9 E 15 24 8 13 1018.8 - 0.0
22/11:00am 26.0 25.6 18.1 61 5.0 ESE 17 24 9 13 1019.3 - 0.0
22/10:30am 24.8 23.7 17.2 62 4.7 SSE 19 20 10 11 1019.7 - 0.0
22/10:00am 24.4 24.0 17.1 63 4.5 SE 15 20 8 11 1019.9 - 0.0
22/09:30am 23.5 22.9 16.6 65 4.2 SE 15 20 8 11 1020.0 - 0.0
22/09:00am 23.1 22.6 16.0 64 4.3 ESE 13 20 7 11 1020.0 1019.9 0.0
22/08:30am 22.1 21.6 15.8 67 3.8 ESE 13 20 7 11 1020.1 - 0.0
22/08:00am 21.5 22.0 16.5 73 3.0 SE 9 13 5 7 1019.8 - 0.0
22/07:30am 20.5 20.9 16.2 76 2.6 SE 9 15 5 8 1019.8 - 0.0
22/07:00am 18.8 19.2 16.3 85 1.5 S 9 11 5 6 1019.6 - 0.0
22/06:30am 17.2 17.2 15.1 87 1.2 S 9 11 5 6 1019.3 - 0.0
22/06:00am 18.6 18.3 15.5 82 1.8 ESE 11 15 6 8 1018.9 1018.8 0.0
22/05:30am 18.4 18.4 15.3 82 1.8 E 9 13 5 7 1018.7 - 0.0
22/05:00am 18.5 18.2 15.4 82 1.8 E 11 15 6 8 1018.7 - 0.0
22/04:30am 18.4 18.7 15.9 85 1.5 ESE 9 13 5 7 1018.7 - 0.0
22/04:00am 17.8 19.6 15.4 86 1.4 CALM 0 6 0 3 1018.5 - 0.0
22/03:30am 18.8 18.9 15.4 80 2.0 SE 9 13 5 7 1018.4 - 0.0
22/03:00am 19.3 19.3 15.2 77 2.4 SE 9 13 5 7 1018.6 1018.5 0.0
22/02:30am 19.1 20.1 15.4 79 2.2 SSE 4 7 2 4 1018.7 - 0.0
22/02:00am 19.4 19.9 15.5 78 2.3 SE 7 11 4 6 1018.9 - 0.0
22/01:30am 19.5 19.8 16.0 80 2.1 SE 9 11 5 6 1019.1 - 0.0
22/01:00am 19.5 20.2 16.0 80 2.1 ESE 7 11 4 6 1019.1 - 0.0
22/12:30am 19.5 20.4 16.0 80 2.1 ESE 6 9 3 5 1019.4 - 0.0
22/12:00am 19.2 20.1 16.2 83 1.8 SE 6 7 3 4 1019.6 1019.5 0.0
 
Date/Time
EST
Temp
°C
App
Temp
°C
Dew
Point
Rel
Hum
%
Delta-T
°C
Wind Press
QNH
hPa
Press
MSL
hPa
Rain
since 9 am
mm
Dir
 
Spd
km/h
Gust
km/h
Spd
kts
Gust
kts
21/11:00pm 20.4 21.1 16.0 76 2.6 SSE 7 9 4 5 1019.8 - 0.0
21/10:30pm 20.6 21.4 16.4 77 2.5 SSE 7 9 4 5 1019.8 - 0.0
21/10:00pm 20.4 21.7 17.1 81 2.0 S 6 7 3 4 1019.9 - 0.0
21/09:30pm 20.4 21.9 17.5 83 1.8 S 6 7 3 4 1019.9 - 0.0
21/09:00pm 20.9 23.3 17.1 79 2.3 CALM 0 0 0 0 1019.8 1019.7 0.0
21/08:30pm 21.0 23.3 16.7 76 2.6 CALM 0 0 0 0 1019.7 - 0.0
21/08:00pm 21.2 22.7 16.6 75 2.8 SSE 4 6 2 3 1019.7 - 0.0
21/07:30pm 22.3 24.2 15.8 66 3.9 CALM 0 6 0 3 1019.4 - 0.0
21/05:30pm 24.6 23.8 13.9 51 6.3 ENE 11 19 6 10 1017.9 - 0.0
21/05:00pm 25.5 24.3 14.0 49 6.8 ENE 13 17 7 9 1017.7 - 0.0
21/04:30pm 26.0 24.5 13.1 44 7.5 ENE 13 20 7 11 1017.3 - 0.0
21/04:00pm 26.6 25.2 14.6 47 7.2 NE 15 24 8 13 1017.3 - 0.0
21/03:30pm 27.0 25.1 13.0 42 8.2 NE 15 19 8 10 1017.3 - 0.0
21/03:00pm 27.3 25.2 12.5 40 8.6 ENE 15 22 8 12 1017.2 1017.1 0.0
21/02:30pm 27.7 25.0 11.7 37 9.2 NE 17 28 9 15 1017.1 - 0.0
21/02:00pm 27.6 24.2 9.0 31 10.2 NE 17 24 9 13 1017.3 - 0.0
21/01:30pm 27.5 23.9 9.9 33 9.8 ENE 19 26 10 14 1017.4 - 0.0

Other Formats:

Comma delimited format used in spreadsheet applications
http://www.bom.gov.au/fwo/IDQ60801/IDQ60801.94374.axf

JavaScript Object Notation format (JSON) in row-major order
http://www.bom.gov.au/fwo/IDQ60801/IDQ60801.94374.json